Time;durP1;ratioP1;P1;durP2;ratioP2;P2;SDS_P1;SDS_P2;PMS_P1;PMS_P2;Temp;Humidity;BMP_temperature;BMP_pressure;BME280_temperature;BME280_humidity;BME280_pressure;Samples;Min_cycle;Max_cycle;Signal;HPM_P1;HPM_P2
2024/01/30 00:02:25;;;;;;;29.90;22.70;;;;;;;2.44;73.34;102107.28;109244;1292;22409;-84
2024/01/30 00:04:52;;;;;;;32.80;22.30;;;;;;;2.45;73.33;102098.33;108695;1297;22168;-82
2024/01/30 00:07:19;;;;;;;30.70;22.80;;;;;;;2.46;73.30;102099.05;108656;1297;22193;-81
2024/01/30 00:09:50;;;;;;;33.90;23.30;;;;;;;2.48;73.34;102092.00;108547;1297;22208;-82
2024/01/30 00:12:19;;;;;;;32.00;23.20;;;;;;;2.47;73.29;102088.48;108279;1296;22460;-86
2024/01/30 00:14:47;;;;;;;30.20;23.00;;;;;;;2.40;73.23;102087.63;108453;1294;22184;-83
2024/01/30 00:17:16;;;;;;;28.80;21.80;;;;;;;2.37;73.29;102086.57;108882;1294;22242;-82
2024/01/30 00:19:43;;;;;;;30.40;22.90;;;;;;;2.33;73.30;102091.23;108893;1294;22403;-83
2024/01/30 00:22:12;;;;;;;29.40;22.80;;;;;;;2.31;73.40;102092.19;108935;1294;22185;-82
2024/01/30 00:24:42;;;;;;;32.10;24.30;;;;;;;2.32;73.45;102092.55;108956;1294;22961;-83
2024/01/30 00:27:12;;;;;;;32.80;24.60;;;;;;;2.30;73.54;102095.09;108859;1294;22174;-84
2024/01/30 00:29:40;;;;;;;34.40;25.10;;;;;;;2.33;73.69;102091.60;108972;1288;23244;-84
2024/01/30 00:32:08;;;;;;;31.00;23.20;;;;;;;2.34;73.52;102095.48;109685;1285;22873;-82
2024/01/30 00:34:35;;;;;;;28.00;22.10;;;;;;;2.33;73.53;102094.04;109717;1288;22786;-83
2024/01/30 00:37:03;;;;;;;30.20;22.50;;;;;;;2.33;73.32;102089.16;109723;1286;22160;-84
2024/01/30 00:39:30;;;;;;;31.40;21.40;;;;;;;2.30;73.34;102089.86;109671;1276;22951;-85
2024/01/30 00:41:57;;;;;;;33.20;21.70;;;;;;;2.32;73.47;102091.35;109687;1287;22076;-83
2024/01/30 00:44:31;;;;;;;32.50;24.00;;;;;;;2.29;73.39;102091.04;109795;1287;22203;-84
2024/01/30 00:47:06;;;;;;;33.20;23.10;;;;;;;2.29;73.51;102091.05;109930;1283;22140;-83
2024/01/30 00:49:35;;;;;;;29.30;22.30;;;;;;;2.32;73.51;102090.48;109870;1288;22254;-84
2024/01/30 00:52:04;;;;;;;29.50;21.10;;;;;;;2.33;73.40;102090.72;109695;1287;22128;-83
2024/01/30 00:54:33;;;;;;;32.60;23.50;;;;;;;2.29;73.15;102090.14;109884;1287;22110;-85
2024/01/30 00:57:01;;;;;;;31.10;21.90;;;;;;;2.21;73.27;102087.35;109948;1287;22137;-83
2024/01/30 00:59:34;;;;;;;30.10;21.90;;;;;;;2.21;73.45;102089.23;109913;1285;22408;-82
2024/01/30 01:02:01;;;;;;;31.70;23.50;;;;;;;2.21;73.33;102085.61;109956;1280;22133;-82
2024/01/30 01:04:28;;;;;;;33.40;24.00;;;;;;;2.18;73.42;102085.24;109874;1287;22123;-84
2024/01/30 01:06:57;;;;;;;30.90;22.60;;;;;;;2.12;73.49;102088.23;109781;1287;22207;-84
2024/01/30 01:09:24;;;;;;;35.10;23.60;;;;;;;2.13;73.67;102087.56;109753;1287;22140;-84
2024/01/30 01:11:53;;;;;;;32.10;23.40;;;;;;;2.13;73.58;102094.39;109692;1287;22161;-84
2024/01/30 01:14:20;;;;;;;32.60;25.50;;;;;;;2.10;73.60;102095.09;109670;1287;22143;-84
2024/01/30 01:16:47;;;;;;;34.10;23.60;;;;;;;2.07;73.57;102094.41;109787;1287;22162;-83
2024/01/30 01:19:14;;;;;;;29.90;23.50;;;;;;;2.01;73.63;102090.08;109302;1292;22204;-82
2024/01/30 01:21:42;;;;;;;35.10;23.30;;;;;;;2.00;73.77;102087.58;109354;1292;22923;-83
2024/01/30 01:24:10;;;;;;;32.90;23.90;;;;;;;1.97;73.74;102088.70;109510;1292;22238;-84
2024/01/30 01:26:39;;;;;;;30.50;22.70;;;;;;;1.96;73.80;102087.42;109265;1290;22179;-82
2024/01/30 01:29:11;;;;;;;34.20;24.50;;;;;;;1.93;73.81;102082.22;109270;1292;22142;-82
2024/01/30 01:31:43;;;;;;;28.60;22.40;;;;;;;1.90;74.11;102081.34;108542;1298;22287;-82
2024/01/30 01:34:13;;;;;;;33.30;23.70;;;;;;;1.87;73.97;102079.27;108627;1293;22213;-83
2024/01/30 01:36:41;;;;;;;30.10;21.50;;;;;;;1.85;74.08;102077.27;108739;1295;22180;-82
2024/01/30 01:39:16;;;;;;;29.70;22.00;;;;;;;1.84;74.22;102077.71;108525;1298;22200;-83
2024/01/30 01:41:46;;;;;;;31.50;23.60;;;;;;;1.83;74.20;102069.19;108488;1298;22237;-83
2024/01/30 01:44:15;;;;;;;36.20;25.20;;;;;;;1.86;74.44;102063.44;108691;1292;22209;-83
2024/01/30 01:46:48;;;;;;;32.70;23.30;;;;;;;1.88;74.15;102064.03;109250;1292;22482;-83
2024/01/30 01:49:16;;;;;;;33.20;23.20;;;;;;;1.87;74.34;102064.34;109007;1292;22170;-83
2024/01/30 01:51:46;;;;;;;38.70;24.40;;;;;;;1.89;74.32;102059.90;109150;1292;22285;-83
2024/01/30 01:54:15;;;;;;;32.90;23.60;;;;;;;1.88;74.41;102055.16;108951;1292;22444;-81
2024/01/30 01:56:45;;;;;;;33.10;23.10;;;;;;;1.89;74.56;102051.41;109317;1287;22130;-82
2024/01/30 01:59:12;;;;;;;34.20;22.00;;;;;;;1.95;74.60;102050.33;109765;1283;22227;-82
2024/01/30 02:01:48;;;;;;;33.10;23.00;;;;;;;1.98;74.34;102052.95;109702;1283;22217;-82
2024/01/30 02:04:17;;;;;;;30.30;22.30;;;;;;;2.00;74.19;102050.91;109108;1292;23029;-83
2024/01/30 02:06:45;;;;;;;32.20;23.10;;;;;;;2.00;74.31;102047.10;108328;1298;23050;-82
2024/01/30 02:09:13;;;;;;;31.50;23.50;;;;;;;2.03;74.33;102049.71;108482;1298;22188;-84
2024/01/30 02:11:46;;;;;;;30.90;22.80;;;;;;;2.05;74.24;102045.98;108522;1298;22260;-85
2024/01/30 02:14:16;;;;;;;33.60;24.20;;;;;;;2.06;74.24;102040.64;108500;1291;22193;-84
2024/01/30 02:16:43;;;;;;;33.60;24.50;;;;;;;2.05;74.10;102035.75;108597;1298;22246;-82
2024/01/30 02:19:14;;;;;;;29.80;23.10;;;;;;;2.05;74.13;102037.28;108861;1298;22269;-83
2024/01/30 02:21:41;;;;;;;32.90;21.60;;;;;;;2.04;73.95;102035.15;108463;1293;22135;-82
2024/01/30 02:24:08;;;;;;;30.70;22.60;;;;;;;2.04;74.10;102036.20;108950;1286;22389;-83
2024/01/30 02:26:36;;;;;;;30.30;22.30;;;;;;;2.06;74.09;102034.39;108423;1295;22946;-84
2024/01/30 02:29:04;;;;;;;35.80;24.30;;;;;;;2.07;73.94;102039.13;107909;1303;22731;-84
2024/01/30 02:31:31;;;;;;;31.50;22.60;;;;;;;2.08;73.97;102038.48;108404;1299;22195;-85
2024/01/30 02:36:52;;;;;;;32.70;23.60;;;;;;;2.05;73.83;102041.12;108611;1299;22892;-84
2024/01/30 02:39:19;;;;;;;30.70;22.30;;;;;;;2.04;73.94;102037.95;108440;1296;22156;-85
2024/01/30 02:41:46;;;;;;;31.70;21.80;;;;;;;2.02;73.92;102045.50;108643;1295;22974;-84
2024/01/30 02:44:13;;;;;;;31.40;22.00;;;;;;;2.02;73.89;102043.39;108832;1293;22201;-84
2024/01/30 02:46:43;;;;;;;28.90;21.80;;;;;;;2.05;73.85;102048.93;108951;1280;22365;-84
2024/01/30 02:49:10;;;;;;;30.60;22.30;;;;;;;2.07;73.84;102050.58;109616;1283;22145;-85
2024/01/30 02:51:39;;;;;;;31.80;22.50;;;;;;;2.08;73.78;102050.83;109568;1280;22294;-85
2024/01/30 02:54:07;;;;;;;30.80;21.90;;;;;;;2.05;73.74;102051.74;109581;1290;22161;-82
2024/01/30 02:56:34;;;;;;;29.80;22.40;;;;;;;2.04;73.70;102050.48;109339;1292;22412;-83
2024/01/30 02:59:04;;;;;;;34.50;23.50;;;;;;;2.01;73.54;102045.77;109244;1292;22965;-83
2024/01/30 03:01:31;;;;;;;33.10;22.90;;;;;;;1.98;73.80;102043.72;109376;1292;22405;-83
2024/01/30 03:03:59;;;;;;;33.40;23.40;;;;;;;1.98;73.77;102037.85;109375;1290;22262;-83
2024/01/30 03:06:26;;;;;;;30.20;21.60;;;;;;;1.99;73.73;102038.20;108898;1289;22185;-84
2024/01/30 03:08:53;;;;;;;32.60;22.30;;;;;;;2.00;73.66;102040.67;108686;1292;22187;-84
2024/01/30 03:11:21;;;;;;;31.40;22.00;;;;;;;2.01;73.71;102043.34;108576;1292;22320;-84
2024/01/30 03:13:51;;;;;;;26.80;21.10;;;;;;;2.04;73.67;102045.59;108746;1297;23060;-83
2024/01/30 03:16:19;;;;;;;28.30;21.50;;;;;;;2.02;73.44;102046.54;108808;1297;22196;-83
2024/01/30 03:18:46;;;;;;;31.70;22.80;;;;;;;1.96;73.44;102042.05;108582;1289;22208;-84
2024/01/30 03:21:15;;;;;;;28.70;21.20;;;;;;;1.95;73.56;102043.90;108713;1296;22325;-82
2024/01/30 03:23:44;;;;;;;31.80;21.70;;;;;;;1.92;73.46;102038.38;108814;1293;22296;-84
2024/01/30 03:26:13;;;;;;;30.70;22.00;;;;;;;1.91;73.51;102041.94;108681;1291;22218;-82
2024/01/30 03:28:40;;;;;;;30.40;21.20;;;;;;;1.89;73.55;102040.64;108513;1299;22166;-84
2024/01/30 03:31:10;;;;;;;32.30;21.50;;;;;;;1.90;73.58;102043.64;108586;1291;22199;-84
2024/01/30 03:33:37;;;;;;;26.80;20.30;;;;;;;1.93;73.59;102042.06;109353;1285;22190;-83
2024/01/30 03:36:09;;;;;;;30.40;22.00;;;;;;;1.96;73.61;102038.41;109182;1291;22669;-85
2024/01/30 03:38:38;;;;;;;27.80;20.50;;;;;;;1.97;73.44;102033.45;109242;1286;22168;-84
2024/01/30 03:41:09;;;;;;;25.00;18.90;;;;;;;1.96;73.43;102036.34;109389;1289;22193;-83
2024/01/30 03:43:36;;;;;;;34.00;21.40;;;;;;;1.90;73.19;102029.39;109271;1291;22245;-84
2024/01/30 03:46:04;;;;;;;30.80;22.20;;;;;;;1.83;73.35;102032.54;109428;1287;22165;-82
2024/01/30 03:48:32;;;;;;;31.70;22.00;;;;;;;1.83;73.45;102032.16;109714;1287;22223;-83
2024/01/30 03:51:02;;;;;;;30.50;21.90;;;;;;;1.81;73.37;102030.34;109806;1286;22157;-83
2024/01/30 03:53:29;;;;;;;26.00;19.90;;;;;;;1.79;73.35;102026.58;109740;1287;22205;-82
2024/01/30 03:55:57;;;;;;;29.20;20.90;;;;;;;1.72;73.15;102022.40;109672;1284;22325;-82
2024/01/30 03:58:24;;;;;;;30.40;21.20;;;;;;;1.69;73.36;102026.38;109767;1280;22202;-83
2024/01/30 04:00:55;;;;;;;28.90;21.50;;;;;;;1.70;73.51;102023.49;109695;1287;23016;-83
2024/01/30 04:03:22;;;;;;;28.10;21.10;;;;;;;1.71;73.44;102025.09;109256;1286;22393;-84
2024/01/30 04:05:52;;;;;;;31.70;22.30;;;;;;;1.70;73.46;102023.84;108637;1298;22282;-86
2024/01/30 04:08:20;;;;;;;30.70;22.30;;;;;;;1.70;73.49;102020.92;108869;1298;22168;-83
2024/01/30 04:10:48;;;;;;;29.20;20.80;;;;;;;1.71;73.44;102019.19;108822;1298;22308;-82
2024/01/30 04:13:16;;;;;;;28.80;20.90;;;;;;;1.72;73.34;102023.39;108797;1298;22182;-83
2024/01/30 04:15:44;;;;;;;28.10;20.80;;;;;;;1.71;73.44;102029.14;108916;1292;22298;-84
2024/01/30 04:18:13;;;;;;;28.00;20.80;;;;;;;1.75;73.48;102033.13;108226;1296;22232;-84
2024/01/30 04:20:41;;;;;;;25.80;20.00;;;;;;;1.78;73.41;102031.54;108016;1298;22208;-83
2024/01/30 04:23:10;;;;;;;30.00;20.60;;;;;;;1.80;73.43;102033.23;108415;1292;23320;-83
2024/01/30 04:25:38;;;;;;;28.40;21.10;;;;;;;1.82;73.40;102032.09;108907;1292;22416;-83
2024/01/30 04:28:07;;;;;;;29.50;21.60;;;;;;;1.83;73.22;102029.05;108969;1292;22170;-84
2024/01/30 04:30:35;;;;;;;29.20;21.30;;;;;;;1.83;73.32;102028.52;108783;1292;22888;-84
2024/01/30 04:33:03;;;;;;;29.50;21.50;;;;;;;1.84;73.29;102028.23;109019;1292;22335;-83
2024/01/30 04:35:30;;;;;;;29.80;21.50;;;;;;;1.84;73.23;102032.54;108427;1292;23202;-84
2024/01/30 04:38:00;;;;;;;28.60;20.60;;;;;;;1.81;73.05;102028.58;109129;1292;22243;-82
2024/01/30 04:40:29;;;;;;;30.30;19.50;;;;;;;1.77;72.95;102022.48;109298;1286;22153;-85
2024/01/30 04:42:56;;;;;;;28.80;21.60;;;;;;;1.77;73.06;102022.44;108537;1298;22945;-83
2024/01/30 04:45:25;;;;;;;29.40;21.10;;;;;;;1.76;73.08;102023.63;108177;1301;22397;-82
2024/01/30 04:47:52;;;;;;;32.90;21.90;;;;;;;1.77;73.04;102021.56;108189;1303;22289;-84
2024/01/30 04:50:20;;;;;;;27.80;20.10;;;;;;;1.73;72.97;102019.65;108290;1302;22185;-83
2024/01/30 04:52:49;;;;;;;29.50;20.70;;;;;;;1.67;72.81;102021.08;108016;1302;22198;-83
2024/01/30 04:55:17;;;;;;;28.50;21.20;;;;;;;1.65;73.02;102023.56;108219;1302;22869;-83
2024/01/30 04:57:47;;;;;;;30.00;21.10;;;;;;;1.60;72.97;102019.82;108352;1298;22162;-83
2024/01/30 05:00:17;;;;;;;27.50;20.50;;;;;;;1.59;73.13;102022.90;108503;1293;22219;-84
2024/01/30 05:02:45;;;;;;;29.10;19.60;;;;;;;1.59;73.12;102017.14;109019;1292;22205;-82
2024/01/30 05:05:14;;;;;;;28.40;20.20;;;;;;;1.62;73.18;102021.67;109336;1292;22199;-83
2024/01/30 05:07:41;;;;;;;29.40;21.90;;;;;;;1.66;73.15;102023.63;109280;1286;22162;-83
2024/01/30 05:10:11;;;;;;;28.60;20.20;;;;;;;1.69;73.12;102018.38;109318;1287;22138;-83
2024/01/30 05:12:40;;;;;;;27.20;20.90;;;;;;;1.71;73.10;102018.50;109675;1287;22148;-82
2024/01/30 05:15:08;;;;;;;29.70;21.00;;;;;;;1.70;72.87;102016.02;109629;1287;22141;-82
2024/01/30 05:17:36;;;;;;;29.00;21.40;;;;;;;1.70;72.93;102021.23;108984;1290;22229;-83
2024/01/30 05:20:10;;;;;;;28.90;19.80;;;;;;;1.69;72.99;102020.48;108888;1287;22186;-83
2024/01/30 05:22:38;;;;;;;29.00;20.80;;;;;;;1.67;72.76;102019.30;108644;1292;22163;-82
2024/01/30 05:25:07;;;;;;;31.00;20.90;;;;;;;1.62;72.76;102015.06;107856;1301;23023;-84
2024/01/30 05:27:34;;;;;;;28.40;19.50;;;;;;;1.59;72.92;102014.39;108013;1301;22210;-83
2024/01/30 05:30:03;;;;;;;24.90;18.50;;;;;;;1.61;72.93;102017.61;107810;1304;22224;-83
2024/01/30 05:32:31;;;;;;;31.00;20.60;;;;;;;1.63;72.97;102014.95;107899;1298;22179;-84
2024/01/30 05:35:02;;;;;;;25.30;19.40;;;;;;;1.63;72.75;102019.45;108141;1299;22300;-83
2024/01/30 05:37:33;;;;;;;24.20;18.90;;;;;;;1.59;72.85;102021.18;108627;1292;22186;-84
2024/01/30 05:40:02;;;;;;;31.20;21.80;;;;;;;1.57;72.77;102022.81;108568;1292;22389;-84
2024/01/30 05:42:31;;;;;;;28.30;21.20;;;;;;;1.57;72.88;102024.71;109176;1287;22807;-84
2024/01/30 05:44:58;;;;;;;27.80;20.80;;;;;;;1.55;72.68;102029.11;109594;1287;22918;-83
2024/01/30 05:47:26;;;;;;;28.90;20.20;;;;;;;1.52;72.83;102025.13;109493;1284;22222;-82
2024/01/30 05:49:54;;;;;;;29.10;20.20;;;;;;;1.47;72.66;102025.91;109668;1288;22112;-84
2024/01/30 05:52:21;;;;;;;26.80;19.00;;;;;;;1.48;72.92;102017.42;109688;1280;22248;-84
2024/01/30 05:54:49;;;;;;;29.70;21.40;;;;;;;1.44;72.84;102017.08;109799;1281;22136;-87
2024/01/30 05:57:17;;;;;;;29.00;20.00;;;;;;;1.45;72.96;102015.58;109744;1272;22152;-83
2024/01/30 05:59:48;;;;;;;27.70;19.60;;;;;;;1.43;72.85;102020.67;109729;1281;22159;-83
2024/01/30 06:02:15;;;;;;;30.10;21.20;;;;;;;1.42;72.93;102020.77;109949;1287;22435;-83
2024/01/30 06:04:44;;;;;;;30.60;21.70;;;;;;;1.40;73.02;102026.58;109862;1287;22150;-83
2024/01/30 06:07:14;;;;;;;32.10;22.20;;;;;;;1.42;73.16;102024.61;109839;1286;22154;-83
2024/01/30 06:09:46;;;;;;;30.20;20.30;;;;;;;1.43;72.96;102018.06;109857;1287;22052;-83
2024/01/30 06:12:13;;;;;;;28.70;19.70;;;;;;;1.44;72.97;102013.58;109858;1287;22170;-82
2024/01/30 06:14:42;;;;;;;29.70;20.20;;;;;;;1.46;72.99;102013.88;109777;1287;22241;-83
2024/01/30 06:17:14;;;;;;;27.40;20.50;;;;;;;1.49;72.98;102011.59;109810;1287;22143;-82
2024/01/30 06:19:41;;;;;;;28.00;20.50;;;;;;;1.51;72.88;102012.56;109825;1284;22161;-83
2024/01/30 06:22:10;;;;;;;28.40;20.10;;;;;;;1.53;72.79;102013.02;109807;1287;22129;-86
2024/01/30 06:24:38;;;;;;;33.90;22.20;;;;;;;1.51;72.76;102014.49;109812;1286;22179;-88
2024/01/30 06:27:06;;;;;;;28.90;20.80;;;;;;;1.51;72.87;102019.02;109745;1281;22235;-86
2024/01/30 06:29:35;;;;;;;28.50;19.80;;;;;;;1.52;72.66;102016.81;109700;1286;22157;-86
2024/01/30 06:32:02;;;;;;;33.00;22.00;;;;;;;1.51;72.66;102020.57;109724;1287;22208;-87
2024/01/30 06:34:32;;;;;;;29.80;20.00;;;;;;;1.48;72.63;102025.09;109719;1287;22191;-86
2024/01/30 06:36:59;;;;;;;27.20;19.50;;;;;;;1.52;72.74;102029.61;109586;1287;22126;-86
2024/01/30 06:39:29;;;;;;;27.70;18.80;;;;;;;1.54;72.63;102029.40;109706;1287;22117;-86
2024/01/30 06:41:57;;;;;;;25.40;18.90;;;;;;;1.54;72.35;102029.75;109632;1287;22124;-87
2024/01/30 06:44:25;;;;;;;25.80;18.00;;;;;;;1.54;72.43;102027.29;109141;1292;22996;-85
2024/01/30 06:46:52;;;;;;;26.70;19.20;;;;;;;1.50;72.30;102027.98;104593;1292;6162378;-85
2024/01/30 06:49:21;;;;;;;26.60;19.70;;;;;;;1.47;72.40;102028.54;108990;1292;22252;-86
2024/01/30 06:51:49;;;;;;;30.70;21.20;;;;;;;1.44;72.46;102026.28;108882;1292;22364;-86
2024/01/30 06:54:16;;;;;;;28.20;20.00;;;;;;;1.48;72.61;102026.98;109015;1289;22243;-86
2024/01/30 06:56:46;;;;;;;27.70;19.70;;;;;;;1.46;72.44;102026.20;108948;1296;22182;-87
2024/01/30 06:59:14;;;;;;;27.30;18.70;;;;;;;1.48;72.47;102024.39;109066;1290;22187;-85
2024/01/30 07:01:43;;;;;;;28.30;20.50;;;;;;;1.46;72.42;102024.13;108503;1296;22185;-85
2024/01/30 07:04:12;;;;;;;27.30;20.20;;;;;;;1.47;72.50;102023.30;109002;1294;22235;-86
2024/01/30 07:06:40;;;;;;;26.20;19.30;;;;;;;1.50;72.47;102026.73;108864;1296;22184;-84
2024/01/30 07:09:08;;;;;;;27.20;19.80;;;;;;;1.52;72.45;102027.92;108832;1295;22270;-86
2024/01/30 07:11:35;;;;;;;25.00;18.00;;;;;;;1.57;72.55;102024.67;108367;1302;22285;-85
2024/01/30 07:14:06;;;;;;;25.60;18.90;;;;;;;1.57;72.14;102026.60;108386;1295;22195;-85
2024/01/30 07:16:33;;;;;;;27.10;20.00;;;;;;;1.59;72.16;102027.09;107941;1305;22165;-86
2024/01/30 07:19:02;;;;;;;31.60;19.80;;;;;;;1.64;72.02;102025.42;108156;1300;22500;-87
2024/01/30 07:21:30;;;;;;;30.30;19.80;;;;;;;1.69;71.94;102032.62;108331;1300;22172;-86
2024/01/30 07:23:57;;;;;;;29.90;20.00;;;;;;;1.71;71.80;102036.06;108340;1300;22187;-85
2024/01/30 07:26:29;;;;;;;27.80;19.30;;;;;;;1.76;71.98;102035.61;108495;1296;22161;-87
2024/01/30 07:28:57;;;;;;;28.50;19.90;;;;;;;1.82;71.81;102036.64;108632;1294;22158;-88
2024/01/30 07:31:24;;;;;;;31.30;20.60;;;;;;;1.88;71.81;102033.99;108567;1297;22205;-87
2024/01/30 07:33:54;;;;;;;27.00;20.60;;;;;;;1.94;71.51;102031.35;108383;1294;22915;-88
2024/01/30 07:36:22;;;;;;;27.60;18.60;;;;;;;1.98;71.44;102031.40;108907;1294;22162;-88
2024/01/30 07:38:50;;;;;;;27.50;19.70;;;;;;;2.04;71.16;102029.58;108761;1294;22400;-87
2024/01/30 07:41:17;;;;;;;28.80;19.50;;;;;;;2.05;71.05;102033.31;109166;1292;22357;-86
2024/01/30 07:43:45;;;;;;;28.20;19.40;;;;;;;2.09;71.06;102034.55;108944;1294;22170;-87
2024/01/30 07:46:12;;;;;;;28.00;19.20;;;;;;;2.16;71.03;102032.13;108873;1294;22266;-85
2024/01/30 07:48:40;;;;;;;27.60;18.20;;;;;;;2.23;70.94;102035.96;109160;1289;22205;-89
2024/01/30 07:51:10;;;;;;;25.50;19.90;;;;;;;2.31;70.79;102031.51;109639;1288;22933;-88
2024/01/30 07:53:37;;;;;;;29.60;19.90;;;;;;;2.41;70.71;102028.02;109708;1286;22202;-88
2024/01/30 07:56:09;;;;;;;25.70;18.20;;;;;;;2.50;70.50;102030.17;109667;1287;22111;-88
2024/01/30 07:58:37;;;;;;;27.00;19.60;;;;;;;2.56;70.19;102032.41;109816;1287;22119;-88
2024/01/30 08:01:05;;;;;;;27.90;20.10;;;;;;;2.64;70.00;102029.46;109759;1286;22152;-89
2024/01/30 08:03:34;;;;;;;27.90;20.20;;;;;;;2.70;70.04;102032.92;109806;1287;22260;-86
2024/01/30 08:06:02;;;;;;;30.30;20.20;;;;;;;2.77;69.69;102032.04;109757;1287;22784;-87
2024/01/30 08:08:30;;;;;;;26.60;19.00;;;;;;;2.84;69.63;102032.20;109686;1287;22180;-89
2024/01/30 08:10:58;;;;;;;25.90;19.20;;;;;;;2.90;69.44;102031.11;109721;1287;22128;-88
2024/01/30 08:13:25;;;;;;;26.50;18.90;;;;;;;2.94;69.28;102028.00;109750;1287;22959;-87
2024/01/30 08:15:53;;;;;;;29.10;19.70;;;;;;;3.01;68.94;102030.23;109795;1284;22139;-86
2024/01/30 08:18:20;;;;;;;25.80;19.90;;;;;;;2.99;68.49;102023.17;109756;1286;22230;-87
2024/01/30 08:20:50;;;;;;;23.60;18.50;;;;;;;3.01;68.72;102023.44;109803;1287;22325;-87
2024/01/30 08:23:20;;;;;;;30.10;20.20;;;;;;;3.05;68.59;102025.05;109722;1281;22237;-87
2024/01/30 08:25:48;;;;;;;23.90;18.50;;;;;;;3.10;68.38;102020.73;109718;1286;22136;-88
2024/01/30 08:28:18;;;;;;;25.80;18.20;;;;;;;3.15;68.07;102010.89;109722;1287;23267;-88
2024/01/30 08:30:47;;;;;;;27.60;19.90;;;;;;;3.18;67.56;102011.23;109313;1291;22342;-89
2024/01/30 08:33:15;;;;;;;25.00;19.00;;;;;;;3.21;67.74;102008.05;109163;1292;22158;-87
2024/01/30 08:35:43;;;;;;;26.00;19.90;;;;;;;3.26;67.56;102006.16;109312;1292;22184;-87
2024/01/30 08:38:12;;;;;;;28.00;20.00;;;;;;;3.33;67.51;102001.96;109350;1285;22168;-87
2024/01/30 08:40:39;;;;;;;26.20;19.20;;;;;;;3.42;67.48;102007.25;109450;1292;22170;-89
2024/01/30 08:43:10;;;;;;;28.90;19.00;;;;;;;3.55;67.41;102010.14;108947;1292;22188;-87
2024/01/30 08:45:38;;;;;;;28.10;18.80;;;;;;;3.68;67.06;102006.71;109289;1292;22386;-87
2024/01/30 08:48:06;;;;;;;26.50;19.40;;;;;;;3.81;66.87;102010.39;109305;1278;22388;-83
2024/01/30 08:50:34;;;;;;;31.40;19.60;;;;;;;3.94;66.76;102013.59;109556;1271;22300;-83
2024/01/30 08:53:02;;;;;;;28.40;19.30;;;;;;;4.11;66.44;102016.92;109631;1287;22219;-83
2024/01/30 08:55:30;;;;;;;26.60;19.30;;;;;;;4.20;65.72;102012.08;109701;1287;22099;-83
2024/01/30 08:57:57;;;;;;;26.50;18.30;;;;;;;4.26;65.48;102011.65;109218;1291;22191;-83
2024/01/30 09:00:26;;;;;;;25.40;18.20;;;;;;;4.37;65.49;102011.77;109271;1292;22916;-83
2024/01/30 09:02:54;;;;;;;26.00;17.80;;;;;;;4.50;65.34;102010.73;109135;1292;23136;-83
2024/01/30 09:05:25;;;;;;;23.10;16.80;;;;;;;4.62;64.75;102010.34;109267;1289;22433;-83
2024/01/30 09:07:52;;;;;;;27.40;17.30;;;;;;;4.77;64.77;102008.34;109248;1292;22156;-83
2024/01/30 09:10:20;;;;;;;21.80;16.80;;;;;;;4.89;64.50;102007.28;109171;1291;22429;-83
2024/01/30 09:12:49;;;;;;;23.90;16.30;;;;;;;4.97;64.02;102009.52;109440;1292;22852;-83
2024/01/30 09:15:18;;;;;;;21.70;14.90;;;;;;;5.06;63.22;102011.08;109265;1287;22412;-83
2024/01/30 09:17:50;;;;;;;21.00;15.10;;;;;;;5.14;63.10;102005.98;109710;1287;22196;-83
2024/01/30 09:20:41;;;;;;;20.00;15.50;;;;;;;5.24;62.96;102001.46;109841;1280;22146;-83
2024/01/30 09:23:10;;;;;;;19.50;14.90;;;;;;;5.38;62.83;102000.07;109794;1287;22179;-84
2024/01/30 09:25:37;;;;;;;21.00;15.20;;;;;;;5.52;62.60;101999.23;109264;1289;22196;-83
2024/01/30 09:28:06;;;;;;;21.60;15.00;;;;;;;5.65;62.20;101997.04;109113;1292;22181;-85
2024/01/30 09:30:35;;;;;;;20.40;14.30;;;;;;;5.76;61.90;101996.73;109392;1292;22219;-82
2024/01/30 09:33:03;;;;;;;24.90;14.60;;;;;;;5.87;61.49;101989.99;109111;1292;22252;-82
2024/01/30 09:35:32;;;;;;;22.60;14.80;;;;;;;6.01;61.36;101990.84;109372;1286;22225;-83
2024/01/30 09:38:00;;;;;;;23.50;15.70;;;;;;;6.15;61.25;101989.23;109018;1292;22288;-84
2024/01/30 09:40:29;;;;;;;21.00;15.30;;;;;;;6.29;61.01;101986.23;109157;1292;22192;-84
2024/01/30 09:42:59;;;;;;;20.40;14.40;;;;;;;6.40;60.47;101985.04;109398;1287;22901;-83
2024/01/30 09:45:27;;;;;;;21.80;13.60;;;;;;;6.51;60.14;101985.72;109722;1287;22891;-84
2024/01/30 09:47:59;;;;;;;19.30;13.90;;;;;;;6.59;59.63;101982.33;109693;1283;22111;-84
2024/01/30 09:50:26;;;;;;;15.30;12.80;;;;;;;6.70;59.36;101986.88;109749;1287;22161;-82
2024/01/30 09:52:55;;;;;;;23.80;14.30;;;;;;;6.79;59.08;101988.90;109771;1287;22164;-82
2024/01/30 09:55:24;;;;;;;16.80;13.00;;;;;;;6.89;58.92;101980.67;109840;1281;22132;-83
2024/01/30 09:57:51;;;;;;;19.60;12.80;;;;;;;7.00;58.40;101979.23;109774;1287;22191;-84
2024/01/30 10:00:19;;;;;;;20.20;13.30;;;;;;;7.11;58.27;101979.75;109762;1284;22129;-84
2024/01/30 10:02:47;;;;;;;22.80;12.60;;;;;;;7.16;57.45;101975.36;109860;1275;22188;-86
2024/01/30 10:05:18;;;;;;;20.30;11.90;;;;;;;7.24;57.83;101973.30;109854;1286;22136;-85
2024/01/30 10:08:10;;;;;;;15.90;11.50;;;;;;;7.39;57.24;101971.66;109557;1290;22146;-84
2024/01/30 10:10:38;;;;;;;18.00;12.60;;;;;;;7.51;56.93;101969.02;109494;1292;22250;-83
2024/01/30 10:13:05;;;;;;;15.30;11.80;;;;;;;7.63;56.65;101964.95;108919;1294;22163;-84
2024/01/30 10:15:35;;;;;;;16.30;11.60;;;;;;;7.68;56.22;101962.14;108899;1294;22192;-84
2024/01/30 10:18:03;;;;;;;19.20;11.80;;;;;;;7.77;55.99;101960.27;108903;1294;22492;-84
2024/01/30 10:20:36;;;;;;;19.20;13.00;;;;;;;7.86;55.86;101957.35;109192;1294;22225;-85
2024/01/30 10:23:04;;;;;;;17.00;11.80;;;;;;;8.00;55.73;101953.86;108895;1294;22166;-84
2024/01/30 10:25:31;;;;;;;17.70;12.20;;;;;;;8.12;55.45;101951.57;108884;1294;22231;-83
2024/01/30 10:28:01;;;;;;;18.80;12.30;;;;;;;8.25;55.27;101950.29;108946;1291;22204;-84
2024/01/30 10:30:32;;;;;;;19.10;12.80;;;;;;;8.38;54.84;101945.18;109535;1291;22157;-85
2024/01/30 10:33:00;;;;;;;18.60;11.60;;;;;;;8.48;54.40;101940.33;109606;1287;22187;-83
2024/01/30 10:35:29;;;;;;;16.70;11.80;;;;;;;8.59;54.25;101937.84;109838;1287;22955;-84
2024/01/30 10:38:00;;;;;;;16.60;12.50;;;;;;;8.66;53.32;101930.26;109909;1284;22117;-83
2024/01/30 10:40:35;;;;;;;15.80;11.40;;;;;;;8.76;53.64;101931.37;109922;1287;22942;-83
2024/01/30 10:43:04;;;;;;;16.90;12.20;;;;;;;8.86;53.15;101925.27;109700;1287;22206;-83
2024/01/30 10:45:38;;;;;;;15.90;12.00;;;;;;;8.91;53.09;101926.79;109545;1291;22167;-83
2024/01/30 10:48:09;;;;;;;15.90;12.60;;;;;;;9.01;52.69;101921.38;109744;1291;22162;-84
2024/01/30 10:50:40;;;;;;;19.90;11.50;;;;;;;9.01;51.98;101919.45;109763;1291;22167;-83
2024/01/30 10:53:22;;;;;;;19.20;11.90;;;;;;;9.10;53.93;101915.59;109224;1293;22208;-87
2024/01/30 10:55:52;;;;;;;17.10;11.40;;;;;;;9.43;55.15;101914.70;109258;1293;22202;-82
2024/01/30 10:58:22;;;;;;;14.20;10.70;;;;;;;9.91;56.33;101908.03;109241;1293;22173;-82
2024/01/30 11:00:53;;;;;;;19.30;11.90;;;;;;;10.67;56.64;101909.13;108651;1298;22202;-81
2024/01/30 11:03:21;;;;;;;16.30;11.60;;;;;;;10.95;54.36;101901.05;108681;1298;22186;-81
2024/01/30 11:05:53;;;;;;;15.80;11.40;;;;;;;11.09;53.05;101899.13;107985;1303;22319;-83
2024/01/30 11:08:25;;;;;;;15.60;10.90;;;;;;;11.26;52.81;101896.70;108245;1299;22340;-82
2024/01/30 11:11:00;;;;;;;18.00;11.90;;;;;;;11.13;51.93;101894.41;107713;1305;22178;-81
2024/01/30 11:13:31;;;;;;;15.80;10.90;;;;;;;11.15;50.78;101892.16;107669;1305;22168;-81
2024/01/30 11:16:07;;;;;;;17.90;11.80;;;;;;;11.04;51.33;101889.89;107790;1305;22932;-81
2024/01/30 11:18:37;;;;;;;33.10;12.50;;;;;;;11.21;52.16;101891.16;107706;1304;22337;-83
2024/01/30 11:21:06;;;;;;;16.30;10.60;;;;;;;11.53;52.55;101886.25;107226;1310;22204;-81